createdAt,value
2022-12-25T00:00:50.630Z,8.98
2022-12-25T00:03:17.175Z,9.90
2022-12-25T00:05:43.730Z,10.88
2022-12-25T00:08:10.569Z,9.18
2022-12-25T00:10:43.006Z,7.68
2022-12-25T00:13:11.770Z,7.63
2022-12-25T00:15:40.800Z,8.52
2022-12-25T00:18:07.158Z,5.40
2022-12-25T00:20:33.712Z,6.20
2022-12-25T00:23:00.092Z,7.78
2022-12-25T00:25:26.436Z,10.45
2022-12-25T00:27:53.426Z,7.75
2022-12-25T00:30:19.756Z,7.05
2022-12-25T00:32:46.078Z,7.35
2022-12-25T00:35:12.777Z,5.78
2022-12-25T00:37:39.185Z,7.45
2022-12-25T00:40:06.139Z,8.77
2022-12-25T00:42:32.852Z,7.35
2022-12-25T00:45:01.928Z,5.45
2022-12-25T00:47:29.414Z,7.53
2022-12-25T00:49:55.792Z,7.18
2022-12-25T00:52:22.537Z,6.85
2022-12-25T00:54:48.873Z,4.50
2022-12-25T00:57:15.705Z,8.52
2022-12-25T00:59:42.421Z,5.85
2022-12-25T01:02:29.203Z,7.93
2022-12-25T01:04:57.155Z,6.47
2022-12-25T01:07:26.898Z,8.55
2022-12-25T01:10:11.871Z,7.78
2022-12-25T01:12:41.484Z,6.82
2022-12-25T01:15:09.940Z,8.32
2022-12-25T01:17:36.314Z,7.88
2022-12-25T01:20:03.213Z,6.25
2022-12-25T01:22:29.548Z,7.65
2022-12-25T01:24:55.895Z,8.18
2022-12-25T01:27:22.731Z,6.68
2022-12-25T01:29:49.064Z,5.78
2022-12-25T01:32:15.438Z,6.95
2022-12-25T01:34:42.343Z,6.00
2022-12-25T01:37:08.696Z,6.97
2022-12-25T01:39:35.046Z,5.68
2022-12-25T01:42:01.744Z,4.38
2022-12-25T01:44:37.075Z,7.00
2022-12-25T01:47:05.543Z,7.95
2022-12-25T01:49:35.083Z,6.15
2022-12-25T01:52:25.231Z,7.85
2022-12-25T01:54:53.969Z,8.20
2022-12-25T01:57:25.953Z,8.30
2022-12-25T01:59:54.309Z,8.98
2022-12-25T02:02:22.022Z,8.07
2022-12-25T02:04:55.885Z,8.02
2022-12-25T02:07:25.201Z,9.73
2022-12-25T02:09:52.504Z,8.05
2022-12-25T02:12:21.524Z,7.30
2022-12-25T02:14:50.035Z,7.70
2022-12-25T02:17:19.475Z,9.13
2022-12-25T02:20:16.267Z,8.43
2022-12-25T02:23:15.415Z,8.30
2022-12-25T02:26:29.600Z,7.93
2022-12-25T02:28:59.163Z,8.13
2022-12-25T02:31:37.704Z,9.45
2022-12-25T02:34:15.926Z,10.80
2022-12-25T02:37:25.393Z,7.53
2022-12-25T02:40:02.707Z,6.28
2022-12-25T02:43:25.769Z,6.22
2022-12-25T02:46:30.776Z,6.45
2022-12-25T02:49:19.795Z,7.63
2022-12-25T02:52:10.697Z,8.68
2022-12-25T02:55:01.023Z,6.97
2022-12-25T02:57:50.866Z,9.68
2022-12-25T03:00:36.446Z,8.75
2022-12-25T03:03:25.680Z,10.32
2022-12-25T03:06:16.579Z,10.85
2022-12-25T03:08:46.622Z,9.07
2022-12-25T03:11:31.618Z,11.00
2022-12-25T03:14:21.359Z,9.13
2022-12-25T03:16:55.336Z,9.20
2022-12-25T03:19:43.238Z,11.05
2022-12-25T03:22:33.927Z,9.05
2022-12-25T03:25:19.164Z,10.73
2022-12-25T03:30:31.854Z,10.15
2022-12-25T03:33:44.450Z,10.50
2022-12-25T03:36:25.082Z,11.27
2022-12-25T03:39:39.822Z,12.07
2022-12-25T03:42:26.083Z,8.85
2022-12-25T03:45:34.275Z,8.88
2022-12-25T03:48:13.573Z,11.15
2022-12-25T03:51:13.335Z,10.38
2022-12-25T03:54:03.176Z,11.55
2022-12-25T03:57:03.369Z,11.82
2022-12-25T03:59:48.013Z,14.45
2022-12-25T04:02:33.163Z,11.55
2022-12-25T04:08:03.522Z,8.55
2022-12-25T04:13:34.448Z,9.15
2022-12-25T04:16:19.228Z,8.98
2022-12-25T04:19:04.645Z,11.00
2022-12-25T04:21:49.716Z,9.80
2022-12-25T04:24:34.906Z,12.82
2022-12-25T04:30:04.604Z,11.98
2022-12-25T04:32:49.849Z,9.32
2022-12-25T04:38:01.513Z,9.10
2022-12-25T04:40:27.925Z,8.45
2022-12-25T04:42:54.647Z,12.05
2022-12-25T04:45:21.047Z,9.18
2022-12-25T04:47:47.376Z,10.95
2022-12-25T04:50:14.189Z,8.65
2022-12-25T04:52:41.128Z,13.35
2022-12-25T04:55:09.694Z,11.23
2022-12-25T04:57:36.364Z,14.73
2022-12-25T05:00:03.560Z,13.52
2022-12-25T05:02:30.072Z,15.30
2022-12-25T05:04:56.865Z,12.82
2022-12-25T05:07:23.253Z,13.30
2022-12-25T05:09:49.607Z,12.00
2022-12-25T05:12:16.295Z,14.10
2022-12-25T05:14:42.688Z,14.25
2022-12-25T05:17:09.063Z,14.25
2022-12-25T05:19:35.870Z,15.45
2022-12-25T05:22:02.191Z,14.57
2022-12-25T05:24:28.741Z,12.88
2022-12-25T05:26:55.437Z,12.77
2022-12-25T05:29:21.829Z,13.05
2022-12-25T05:31:48.624Z,25.92
2022-12-25T05:34:15.418Z,20.73
2022-12-25T05:36:41.780Z,41.08
2022-12-25T05:39:08.694Z,32.17
2022-12-25T05:41:35.155Z,16.15
2022-12-25T05:44:01.712Z,15.63
2022-12-25T05:46:28.604Z,16.17
2022-12-25T05:48:55.022Z,22.88
2022-12-25T05:51:21.508Z,29.27
2022-12-25T05:53:48.347Z,30.83
2022-12-25T05:56:14.680Z,26.05
2022-12-25T05:58:41.693Z,28.52
2022-12-25T06:01:17.472Z,29.90
2022-12-25T06:03:43.938Z,27.98
2022-12-25T06:06:11.160Z,22.40
2022-12-25T06:08:38.411Z,39.30
2022-12-25T06:11:06.655Z,29.17
2022-12-25T06:13:34.208Z,24.35
2022-12-25T06:16:07.610Z,28.42
2022-12-25T06:18:44.301Z,20.60
2022-12-25T06:21:13.014Z,23.92
2022-12-25T06:23:40.037Z,21.20
2022-12-25T06:26:09.027Z,33.75
2022-12-25T06:28:35.953Z,25.38
2022-12-25T06:31:15.051Z,21.00
2022-12-25T06:33:42.382Z,17.63
2022-12-25T06:36:21.123Z,23.70
2022-12-25T06:38:48.574Z,19.63
2022-12-25T06:41:20.188Z,22.73
2022-12-25T06:43:51.501Z,20.52
2022-12-25T06:46:19.510Z,19.40
2022-12-25T06:48:50.031Z,16.23
2022-12-25T06:51:19.317Z,20.00
2022-12-25T06:53:46.816Z,17.20
2022-12-25T06:56:15.932Z,18.95
2022-12-25T06:58:48.158Z,20.42
2022-12-25T07:01:25.454Z,19.20
2022-12-25T07:03:55.748Z,17.98
2022-12-25T07:06:22.805Z,19.27
2022-12-25T07:08:49.439Z,16.05
2022-12-25T07:11:16.026Z,16.42
2022-12-25T07:13:42.729Z,21.55
2022-12-25T07:16:11.578Z,19.85
2022-12-25T07:18:39.149Z,23.50
2022-12-25T07:21:16.133Z,21.77
2022-12-25T07:23:46.293Z,23.00
2022-12-25T07:26:13.922Z,28.67
2022-12-25T07:28:40.714Z,21.45
2022-12-25T07:31:11.890Z,24.25
2022-12-25T07:33:38.620Z,18.95
2022-12-25T07:36:06.015Z,17.33
2022-12-25T07:38:32.777Z,19.45
2022-12-25T07:40:59.243Z,18.60
2022-12-25T07:43:25.936Z,15.32
2022-12-25T07:45:59.704Z,16.25
2022-12-25T07:48:27.858Z,21.88
2022-12-25T07:50:59.626Z,16.90
2022-12-25T07:53:26.527Z,16.27
2022-12-25T07:55:57.925Z,17.95
2022-12-25T07:58:24.462Z,19.42
2022-12-25T08:00:50.951Z,18.20
2022-12-25T08:03:18.201Z,23.17
2022-12-25T08:05:45.519Z,26.15
2022-12-25T08:08:11.959Z,17.15
2022-12-25T08:10:38.358Z,18.60
2022-12-25T08:13:10.855Z,16.63
2022-12-25T08:15:41.035Z,13.75
2022-12-25T08:18:07.940Z,20.77
2022-12-25T08:20:34.789Z,21.65
2022-12-25T08:23:01.246Z,19.10
2022-12-25T08:25:28.249Z,18.30
2022-12-25T08:27:54.641Z,17.63
2022-12-25T08:30:20.964Z,18.58
2022-12-25T08:32:47.796Z,17.85
2022-12-25T08:35:14.222Z,17.33
2022-12-25T08:37:40.565Z,17.40
2022-12-25T08:40:07.934Z,16.08
2022-12-25T08:42:34.540Z,17.30
2022-12-25T08:45:00.872Z,20.25
2022-12-25T08:47:27.195Z,17.80
2022-12-25T08:49:54.045Z,15.52
2022-12-25T08:52:20.591Z,16.42
2022-12-25T08:54:47.611Z,14.65
2022-12-25T08:57:13.955Z,16.38
2022-12-25T08:59:40.296Z,16.90
2022-12-25T09:02:07.250Z,15.18
2022-12-25T09:04:33.742Z,17.55
2022-12-25T09:07:00.087Z,17.45
2022-12-25T09:09:30.112Z,13.68
2022-12-25T09:11:56.462Z,15.80
2022-12-25T09:14:22.802Z,15.65
2022-12-25T09:16:52.323Z,14.27
2022-12-25T09:19:18.779Z,14.13
2022-12-25T09:21:45.247Z,14.77
2022-12-25T09:24:11.968Z,17.83
2022-12-25T09:26:38.333Z,16.92
2022-12-25T09:29:04.703Z,16.50
2022-12-25T09:31:31.593Z,16.08
2022-12-25T09:33:58.265Z,16.10
2022-12-25T09:36:25.503Z,16.65
2022-12-25T09:38:52.821Z,15.85
2022-12-25T09:41:38.862Z,15.10
2022-12-25T09:44:17.763Z,15.52
2022-12-25T09:46:50.630Z,14.55
2022-12-25T09:49:20.422Z,13.52
2022-12-25T09:51:53.479Z,17.10
2022-12-25T09:54:30.146Z,15.10
2022-12-25T09:56:57.233Z,13.30
2022-12-25T09:59:25.837Z,16.48
2022-12-25T10:02:25.708Z,15.07
2022-12-25T10:05:18.935Z,17.67
2022-12-25T10:07:50.335Z,14.25
2022-12-25T10:10:45.753Z,13.10
2022-12-25T10:13:48.017Z,11.55
2022-12-25T10:16:25.154Z,12.18
2022-12-25T10:19:03.524Z,12.15
2022-12-25T10:21:31.176Z,12.32
2022-12-25T10:24:27.650Z,13.18
2022-12-25T10:26:56.252Z,12.52
2022-12-25T10:29:22.688Z,13.20
2022-12-25T10:31:54.135Z,13.88
2022-12-25T10:34:21.268Z,12.20
2022-12-25T10:36:47.844Z,13.80
2022-12-25T10:39:23.996Z,11.13
2022-12-25T10:42:16.083Z,13.35
2022-12-25T10:45:01.501Z,14.55
2022-12-25T10:47:34.720Z,13.20
2022-12-25T10:50:28.877Z,12.02
2022-12-25T10:52:59.905Z,19.27
2022-12-25T10:55:29.190Z,50.20
2022-12-25T10:57:57.636Z,16.67
2022-12-25T11:00:27.677Z,13.20
2022-12-25T11:02:54.483Z,11.70
2022-12-25T11:05:35.332Z,12.85
2022-12-25T11:08:03.052Z,11.13
2022-12-25T11:10:36.990Z,12.95
2022-12-25T11:13:07.499Z,10.83
2022-12-25T11:15:40.864Z,9.45
2022-12-25T11:18:32.501Z,11.35
2022-12-25T11:21:16.078Z,10.75
2022-12-25T11:23:48.222Z,11.65
2022-12-25T11:26:16.352Z,11.18
2022-12-25T11:28:45.218Z,9.15
2022-12-25T11:31:37.894Z,10.45
2022-12-25T11:34:20.099Z,9.80
2022-12-25T11:36:50.010Z,8.48
2022-12-25T11:39:33.887Z,8.23
2022-12-25T11:42:20.916Z,10.25
2022-12-25T11:44:51.623Z,8.82
2022-12-25T11:47:35.616Z,8.60
2022-12-25T11:50:28.278Z,8.23
2022-12-25T11:52:56.334Z,8.10
2022-12-25T11:55:28.312Z,8.23
2022-12-25T11:58:02.227Z,9.80
2022-12-25T12:00:30.670Z,10.07
2022-12-25T12:03:06.841Z,8.35
2022-12-25T12:05:46.186Z,10.52
2022-12-25T12:08:14.172Z,9.40
2022-12-25T12:10:55.130Z,10.70
2022-12-25T12:13:31.299Z,9.00
2022-12-25T12:15:58.500Z,9.85
2022-12-25T12:18:28.184Z,8.48
2022-12-25T12:21:07.029Z,7.80
2022-12-25T12:23:47.476Z,7.95
2022-12-25T12:26:23.705Z,7.70
2022-12-25T12:28:53.851Z,10.20
2022-12-25T12:31:20.263Z,9.38
2022-12-25T12:33:52.736Z,7.82
2022-12-25T12:36:34.507Z,7.68
2022-12-25T12:39:01.957Z,9.27
2022-12-25T12:41:44.858Z,7.72
2022-12-25T12:44:12.842Z,7.50
2022-12-25T12:46:51.680Z,7.20
2022-12-25T12:49:25.682Z,6.40
2022-12-25T12:52:21.643Z,8.40
2022-12-25T12:55:14.347Z,15.60
2022-12-25T12:57:41.997Z,9.60
2022-12-25T13:00:17.281Z,7.53
2022-12-25T13:02:44.016Z,7.35
2022-12-25T13:05:40.620Z,6.50
2022-12-25T13:08:29.177Z,6.65
2022-12-25T13:11:14.091Z,7.72
2022-12-25T13:13:44.052Z,8.10
2022-12-25T13:16:21.716Z,9.73
2022-12-25T13:18:50.713Z,6.30
2022-12-25T13:21:22.740Z,9.57
2022-12-25T13:23:59.791Z,7.93
2022-12-25T13:26:27.001Z,8.98
2022-12-25T13:28:55.820Z,9.25
2022-12-25T13:31:28.337Z,8.20
2022-12-25T13:34:02.257Z,6.32
2022-12-25T13:36:31.033Z,7.90
2022-12-25T13:38:59.740Z,7.38
2022-12-25T13:42:03.155Z,6.75
2022-12-25T13:44:41.395Z,7.85
2022-12-25T13:47:20.097Z,6.38
2022-12-25T13:49:47.389Z,6.18
2022-12-25T13:52:17.747Z,8.52
2022-12-25T13:55:00.270Z,6.97
2022-12-25T13:57:39.618Z,7.38
2022-12-25T14:00:08.496Z,6.93
2022-12-25T14:02:37.507Z,6.40
2022-12-25T14:05:32.384Z,8.35
2022-12-25T14:08:13.711Z,7.13
2022-12-25T14:10:41.391Z,7.93
2022-12-25T14:13:12.655Z,6.55
2022-12-25T14:15:40.917Z,7.65
2022-12-25T14:18:14.080Z,7.25
2022-12-25T14:20:42.413Z,6.22
2022-12-25T14:23:16.242Z,8.07
2022-12-25T14:25:44.210Z,6.82
2022-12-25T14:28:32.450Z,6.60
2022-12-25T14:31:00.689Z,6.88
2022-12-25T14:33:31.086Z,8.88
2022-12-25T14:35:59.466Z,6.80
2022-12-25T14:38:35.087Z,7.05
2022-12-25T14:41:05.659Z,7.00
2022-12-25T14:43:32.923Z,7.28
2022-12-25T14:46:02.635Z,10.52
2022-12-25T14:48:33.251Z,7.60
2022-12-25T14:51:04.512Z,6.38
2022-12-25T14:53:48.038Z,8.20
2022-12-25T14:56:20.199Z,6.40
2022-12-25T14:58:54.082Z,9.77
2022-12-25T15:01:35.893Z,6.88
2022-12-25T15:04:10.413Z,8.00
2022-12-25T15:07:01.109Z,6.57
2022-12-25T15:09:30.219Z,7.03
2022-12-25T15:11:56.899Z,7.47
2022-12-25T15:14:24.780Z,8.10
2022-12-25T15:16:58.647Z,7.25
2022-12-25T15:19:37.423Z,7.75
2022-12-25T15:22:05.358Z,9.00
2022-12-25T15:24:32.169Z,6.22
2022-12-25T15:27:00.448Z,7.80
2022-12-25T15:32:23.039Z,7.50
2022-12-25T15:34:50.356Z,8.10
2022-12-25T15:37:18.769Z,6.38
2022-12-25T15:39:45.334Z,7.32
2022-12-25T15:42:21.907Z,7.53
2022-12-25T15:44:48.307Z,9.35
2022-12-25T15:47:16.818Z,6.35
2022-12-25T15:49:43.723Z,7.07
2022-12-25T15:52:13.609Z,8.77
2022-12-25T15:54:39.947Z,7.97
2022-12-25T15:57:12.444Z,9.25
2022-12-25T15:59:38.782Z,10.23
2022-12-25T16:02:15.443Z,9.88
2022-12-25T16:04:42.451Z,10.63
2022-12-25T16:07:21.988Z,6.82
2022-12-25T16:09:48.969Z,11.40
2022-12-25T16:12:15.837Z,7.30
2022-12-25T16:14:42.212Z,8.63
2022-12-25T16:17:12.153Z,8.60
2022-12-25T16:19:38.892Z,10.27
2022-12-25T16:22:20.137Z,7.90
2022-12-25T16:24:46.863Z,7.95
2022-12-25T16:27:13.191Z,10.05
2022-12-25T16:29:39.516Z,10.90
2022-12-25T16:32:06.235Z,10.25
2022-12-25T16:34:32.581Z,9.13
2022-12-25T16:36:58.919Z,9.77
2022-12-25T16:39:25.621Z,7.85
2022-12-25T16:41:52.025Z,9.43
2022-12-25T16:44:18.381Z,7.63
2022-12-25T16:46:45.154Z,9.10
2022-12-25T16:49:11.517Z,7.53
2022-12-25T16:51:37.872Z,6.85
2022-12-25T16:54:04.996Z,6.93
2022-12-25T16:56:32.265Z,8.38
2022-12-25T16:59:00.777Z,7.03
2022-12-25T17:01:27.698Z,8.50
2022-12-25T17:03:54.461Z,7.43
2022-12-25T17:06:23.545Z,7.45
2022-12-25T17:08:52.247Z,8.73
2022-12-25T17:11:23.388Z,9.02
2022-12-25T17:13:49.750Z,8.60
2022-12-25T17:16:19.375Z,9.60
2022-12-25T17:18:46.307Z,10.32
2022-12-25T17:21:14.455Z,8.90
2022-12-25T17:23:41.138Z,7.25
2022-12-25T17:26:07.512Z,6.93
2022-12-25T17:28:34.697Z,7.75
2022-12-25T17:31:10.692Z,6.30
2022-12-25T17:33:41.789Z,7.63
2022-12-25T17:36:11.415Z,7.35
2022-12-25T17:38:38.345Z,5.78
2022-12-25T17:41:07.331Z,5.68
2022-12-25T17:43:35.977Z,5.88
2022-12-25T17:46:12.703Z,3.83
2022-12-25T17:48:39.171Z,6.88
2022-12-25T17:51:08.324Z,4.78
2022-12-25T17:53:36.203Z,5.82
2022-12-25T17:56:02.623Z,4.97
2022-12-25T17:58:29.253Z,6.35
2022-12-25T18:00:56.459Z,7.75
2022-12-25T18:03:23.124Z,6.82
2022-12-25T18:05:49.604Z,6.38
2022-12-25T18:08:16.025Z,7.47
2022-12-25T18:10:43.659Z,7.00
2022-12-25T18:13:11.719Z,3.72
2022-12-25T18:15:40.180Z,2.22
2022-12-25T18:18:07.489Z,4.82
2022-12-25T18:20:39.931Z,6.05
2022-12-25T18:23:06.745Z,5.00
2022-12-25T18:25:34.060Z,6.43
2022-12-25T18:28:02.659Z,7.55
2022-12-25T18:30:29.361Z,6.38
2022-12-25T18:32:56.050Z,4.65
2022-12-25T18:35:22.814Z,6.00
2022-12-25T18:37:49.166Z,4.60
2022-12-25T18:40:16.105Z,7.38
2022-12-25T18:42:43.236Z,4.15
2022-12-25T18:45:12.857Z,4.13
2022-12-25T18:47:39.244Z,4.85
2022-12-25T18:50:06.887Z,2.72
2022-12-25T18:52:48.983Z,4.82
2022-12-25T18:55:18.064Z,4.17
2022-12-25T18:57:44.453Z,7.45
2022-12-25T19:00:11.024Z,5.95
2022-12-25T19:02:37.905Z,6.57
2022-12-25T19:05:05.563Z,3.17
2022-12-25T19:07:32.403Z,3.65
2022-12-25T19:09:59.322Z,5.15
2022-12-25T19:12:25.684Z,4.75
2022-12-25T19:14:52.738Z,5.45
2022-12-25T19:17:19.616Z,5.47
2022-12-25T19:19:46.159Z,7.72
2022-12-25T19:22:12.644Z,7.63
2022-12-25T19:24:39.493Z,5.70
2022-12-25T19:27:06.498Z,4.55
2022-12-25T19:29:32.926Z,6.65
2022-12-25T19:31:59.412Z,7.03
2022-12-25T19:34:25.994Z,6.85
2022-12-25T19:36:52.333Z,12.25
2022-12-25T19:39:18.908Z,7.90
2022-12-25T19:41:45.718Z,10.68
2022-12-25T19:44:12.121Z,11.25
2022-12-25T19:46:40.647Z,14.82
2022-12-25T19:49:11.483Z,13.65
2022-12-25T19:51:40.507Z,14.77
2022-12-25T19:54:07.806Z,12.05
2022-12-25T19:56:34.544Z,13.45
2022-12-25T19:59:01.112Z,17.85
2022-12-25T20:01:29.134Z,21.05
2022-12-25T20:03:56.916Z,19.10
2022-12-25T20:06:29.063Z,17.77
2022-12-25T20:09:02.142Z,15.05
2022-12-25T20:11:30.147Z,18.58
2022-12-25T20:13:57.213Z,12.88
2022-12-25T20:16:25.118Z,16.17
2022-12-25T20:18:52.405Z,12.48
2022-12-25T20:21:21.489Z,13.88
2022-12-25T20:23:50.038Z,11.85
2022-12-25T20:26:18.572Z,10.43
2022-12-25T20:28:45.512Z,8.48
2022-12-25T20:31:27.682Z,9.05
2022-12-25T20:33:59.185Z,9.80
2022-12-25T20:36:31.037Z,9.15
2022-12-25T20:39:01.640Z,7.63
2022-12-25T20:41:29.553Z,8.38
2022-12-25T20:43:56.682Z,9.13
2022-12-25T20:46:24.480Z,12.85
2022-12-25T20:48:52.073Z,9.70
2022-12-25T20:51:21.208Z,11.60
2022-12-25T20:53:47.953Z,8.85
2022-12-25T20:56:17.067Z,13.48
2022-12-25T20:58:43.769Z,9.65
2022-12-25T21:01:12.926Z,14.65
2022-12-25T21:03:40.471Z,13.60
2022-12-25T21:06:07.585Z,11.70
2022-12-25T21:08:34.322Z,8.82
2022-12-25T21:11:01.542Z,10.05
2022-12-25T21:13:35.865Z,10.07
2022-12-25T21:16:06.425Z,11.68
2022-12-25T21:18:33.455Z,13.40
2022-12-25T21:21:04.599Z,14.60
2022-12-25T21:23:31.731Z,11.65
2022-12-25T21:25:58.165Z,13.32
2022-12-25T21:28:27.315Z,11.98
2022-12-25T21:30:54.131Z,11.90
2022-12-25T21:33:39.199Z,10.20
2022-12-25T21:36:10.672Z,11.07
2022-12-25T21:38:38.084Z,9.82
2022-12-25T21:41:12.491Z,14.20
2022-12-25T21:43:40.109Z,14.75
2022-12-25T21:46:09.181Z,16.40
2022-12-25T21:48:37.737Z,15.20
2022-12-25T21:51:33.841Z,14.20
2022-12-25T21:54:01.393Z,16.25
2022-12-25T21:56:32.456Z,12.75
2022-12-25T21:59:00.883Z,13.43
2022-12-25T22:01:29.552Z,15.60
2022-12-25T22:03:57.116Z,12.80
2022-12-25T22:06:41.990Z,8.70
2022-12-25T22:09:09.024Z,8.65
2022-12-25T22:11:54.218Z,13.13
2022-12-25T22:14:52.904Z,13.45
2022-12-25T22:17:42.816Z,7.15
2022-12-25T22:20:15.085Z,12.77
2022-12-25T22:22:41.822Z,14.70
2022-12-25T22:25:09.757Z,14.88
2022-12-25T22:27:38.135Z,11.18
2022-12-25T22:30:12.028Z,12.07
2022-12-25T22:32:38.615Z,14.82
2022-12-25T22:35:06.086Z,12.77
2022-12-25T22:37:32.646Z,7.00
2022-12-25T22:40:01.739Z,11.25
2022-12-25T22:42:28.729Z,14.98
2022-12-25T22:44:55.208Z,11.02
2022-12-25T22:47:22.110Z,12.27
2022-12-25T22:49:49.330Z,13.27
2022-12-25T22:52:15.913Z,11.30
2022-12-25T22:54:42.550Z,10.10
2022-12-25T22:57:08.890Z,10.82
2022-12-25T22:59:35.345Z,10.45
2022-12-25T23:02:02.264Z,11.07
2022-12-25T23:04:29.041Z,14.15
2022-12-25T23:06:55.849Z,15.43
2022-12-25T23:09:27.868Z,14.23
2022-12-25T23:11:56.158Z,12.38
2022-12-25T23:14:41.946Z,11.98
2022-12-25T23:17:32.122Z,14.88
2022-12-25T23:20:19.253Z,9.05
2022-12-25T23:23:05.134Z,8.15
2022-12-25T23:25:50.831Z,10.25
2022-12-25T23:28:40.229Z,11.80
2022-12-25T23:31:07.424Z,13.45
2022-12-25T23:33:33.872Z,11.43
2022-12-25T23:36:00.200Z,13.15
2022-12-25T23:38:27.042Z,10.98
2022-12-25T23:40:53.384Z,9.30
2022-12-25T23:43:20.282Z,13.02
2022-12-25T23:45:46.609Z,12.32
2022-12-25T23:48:12.944Z,9.75
2022-12-25T23:50:39.683Z,9.48
2022-12-25T23:53:06.000Z,8.95
2022-12-25T23:55:33.635Z,10.63
2022-12-25T23:58:00.308Z,9.82
